Terminal Aerodrome Forecast
Issued by NWS

Home | Current Version | Previous Version | Text Only | Print | Product List | Glossary On
Versions: 1 2 3 4 5 6 7 8 9 10 11 12 13 14 15 16 17 18 19 20
000
FTUS42 KMLB 250852 AAA
TAFFPR
TAF AMD
KFPR 250852Z 2509/2606 10008KT P6SM VCSH SCT025
     FM251300 11012KT P6SM SCT025 BKN050
     FM251600 11014G23KT P6SM FEW030 SCT060
     FM260000 10011KT P6SM SCT025=

USA.gov is the U.S. government's official web portal to all federal, state and local government web resources and services.